createdAt,value
2023-02-22T00:01:35.546Z,101518.56
2023-02-22T00:04:05.150Z,101512.28
2023-02-22T00:06:32.081Z,101508.75
2023-02-22T00:08:59.791Z,101505.72
2023-02-22T00:11:26.712Z,101506.53
2023-02-22T00:13:57.103Z,101516.56
2023-02-22T00:16:25.475Z,101516.34
2023-02-22T00:18:53.186Z,101520.09
2023-02-22T00:21:20.341Z,101516.56
2023-02-22T00:23:48.071Z,101513.03
2023-02-22T00:26:21.585Z,101504.09
2023-02-22T00:28:50.984Z,101514.13
2023-02-22T00:31:18.249Z,101522.25
2023-02-22T00:33:45.489Z,101521.44
2023-02-22T00:36:13.550Z,101515.19
2023-02-22T00:38:41.353Z,101512.50
2023-02-22T00:41:08.685Z,101510.81
2023-02-22T00:43:35.539Z,101512.72
2023-02-22T00:46:02.484Z,101508.63
2023-02-22T00:48:29.390Z,101499.66
2023-02-22T00:50:56.026Z,101494.81
2023-02-22T00:53:25.114Z,101495.06
2023-02-22T00:55:52.193Z,101494.00
2023-02-22T00:58:18.888Z,101508.63
2023-02-22T01:00:46.320Z,101502.38
2023-02-22T01:03:16.011Z,101502.91
2023-02-22T01:05:43.147Z,101507.25
2023-02-22T01:08:12.109Z,101489.31
2023-02-22T01:10:39.579Z,101489.31
2023-02-22T01:13:09.312Z,101494.75
2023-02-22T01:15:37.701Z,101483.31
2023-02-22T01:18:05.276Z,101497.69
2023-02-22T01:20:32.602Z,101483.31
2023-02-22T01:23:01.365Z,101487.66
2023-02-22T01:25:30.460Z,101473.53
2023-02-22T01:27:59.049Z,101466.50
2023-02-22T01:30:29.279Z,101464.59
2023-02-22T01:32:56.640Z,101466.72
2023-02-22T01:35:27.881Z,101468.63
2023-02-22T01:37:55.056Z,101465.91
2023-02-22T01:40:29.691Z,101472.41
2023-02-22T01:42:59.839Z,101461.56
2023-02-22T01:45:35.289Z,101456.69
2023-02-22T01:48:06.477Z,101456.94
2023-02-22T01:50:38.859Z,101457.19
2023-02-22T01:53:06.656Z,101458.28
2023-02-22T01:55:35.715Z,101458.28
2023-02-22T01:58:04.393Z,101454.16
2023-02-22T02:00:32.169Z,101457.72
2023-02-22T02:03:04.885Z,101455.00
2023-02-22T02:05:34.255Z,101447.69
2023-02-22T02:08:14.529Z,101442.75
2023-02-22T02:10:42.662Z,101440.03
2023-02-22T02:13:10.158Z,101432.72
2023-02-22T02:15:37.345Z,101432.16
2023-02-22T02:18:07.571Z,101421.31
2023-02-22T02:21:09.594Z,101424.03
2023-02-22T02:24:04.875Z,101416.94
2023-02-22T02:26:40.517Z,101421.31
2023-02-22T02:29:28.134Z,101410.47
2023-02-22T02:32:13.222Z,101413.41
2023-02-22T02:34:54.892Z,101410.97
2023-02-22T02:37:21.489Z,101404.72
2023-02-22T02:40:06.863Z,101397.41
2023-02-22T02:42:38.173Z,101399.31
2023-02-22T02:45:11.575Z,101394.94
2023-02-22T02:47:45.722Z,101396.59
2023-02-22T02:50:34.057Z,101382.44
2023-02-22T02:53:04.821Z,101378.09
2023-02-22T02:55:32.782Z,101378.34
2023-02-22T02:58:00.284Z,101377.50
2023-02-22T03:00:31.597Z,101379.19
2023-02-22T03:03:11.863Z,101364.78
2023-02-22T03:05:38.851Z,101368.56
2023-02-22T03:08:26.456Z,101362.06
2023-02-22T03:11:22.289Z,101356.63
2023-02-22T03:14:11.718Z,101351.22
2023-02-22T03:16:50.374Z,101346.88
2023-02-22T03:19:38.292Z,101333.56
2023-02-22T03:22:16.358Z,101344.66
2023-02-22T03:24:53.081Z,101333.00
2023-02-22T03:27:48.392Z,101330.28
2023-02-22T03:30:26.952Z,101333.81
2023-02-22T03:33:00.521Z,101324.03
2023-02-22T03:35:35.407Z,101325.13
2023-02-22T03:38:06.082Z,101319.69
2023-02-22T03:40:38.552Z,101315.31
2023-02-22T03:43:07.903Z,101313.69
2023-02-22T03:45:38.334Z,101304.25
2023-02-22T03:48:14.265Z,101299.06
2023-02-22T03:50:41.011Z,101305.56
2023-02-22T03:53:08.106Z,101298.50
2023-02-22T03:55:34.956Z,101294.97
2023-02-22T03:58:06.655Z,101284.38
2023-02-22T04:00:34.736Z,101276.22
2023-02-22T04:03:02.227Z,101282.50
2023-02-22T04:05:28.903Z,101285.44
2023-02-22T04:07:57.173Z,101274.59
2023-02-22T04:10:24.192Z,101268.38
2023-02-22T04:12:51.008Z,101271.06
2023-02-22T04:15:21.330Z,101271.88
2023-02-22T04:17:47.935Z,101278.41
2023-02-22T04:20:15.088Z,101272.16
2023-02-22T04:22:42.022Z,101260.50
2023-02-22T04:25:08.753Z,101268.06
2023-02-22T04:27:35.291Z,101269.94
2023-02-22T04:30:01.881Z,101264.75
2023-02-22T04:32:29.685Z,101262.63
2023-02-22T04:34:56.253Z,101261.25
2023-02-22T04:37:22.785Z,101257.47
2023-02-22T04:39:49.339Z,101255.81
2023-02-22T04:42:15.964Z,101259.34
2023-02-22T04:44:42.528Z,101255.00
2023-02-22T04:47:09.053Z,101260.69
2023-02-22T04:49:38.024Z,101248.75
2023-02-22T04:52:05.526Z,101251.97
2023-02-22T04:54:32.117Z,101247.13
2023-02-22T04:56:58.646Z,101262.59
2023-02-22T04:59:25.304Z,101262.31
2023-02-22T05:01:51.946Z,101254.75
2023-02-22T05:04:18.545Z,101256.13
2023-02-22T05:06:45.052Z,101246.94
2023-02-22T05:09:11.567Z,101239.84
2023-02-22T05:11:38.189Z,101235.81
2023-02-22T05:14:04.833Z,101230.97
2023-02-22T05:16:31.435Z,101236.44
2023-02-22T05:18:57.977Z,101230.81
2023-02-22T05:21:24.516Z,101243.03
2023-02-22T05:23:51.049Z,101236.84
2023-02-22T05:26:17.767Z,101232.47
2023-02-22T05:28:44.354Z,101225.41
2023-02-22T05:31:10.889Z,101227.84
2023-02-22T05:33:39.713Z,101229.53
2023-02-22T05:36:07.802Z,101212.44
2023-02-22T05:38:34.854Z,101204.03
2023-02-22T05:41:01.367Z,101194.78
2023-02-22T05:43:27.845Z,101199.97
2023-02-22T05:45:55.623Z,101190.47
2023-02-22T05:48:22.755Z,101175.56
2023-02-22T05:50:49.904Z,101180.72
2023-02-22T05:53:16.556Z,101176.91
2023-02-22T05:55:43.638Z,101176.91
2023-02-22T05:58:11.510Z,101168.53
2023-02-22T06:00:38.036Z,101166.88
2023-02-22T06:03:08.100Z,101157.13
2023-02-22T06:05:35.198Z,101167.72
2023-02-22T06:08:03.196Z,101168.78
2023-02-22T06:10:30.021Z,101163.13
2023-02-22T06:12:57.503Z,101163.13
2023-02-22T06:15:26.455Z,101170.97
2023-02-22T06:17:53.235Z,101169.34
2023-02-22T06:20:22.746Z,101188.06
2023-02-22T06:22:50.975Z,101179.41
2023-02-22T06:25:20.535Z,101173.19
2023-02-22T06:27:47.046Z,101166.66
2023-02-22T06:30:14.886Z,101161.00
2023-02-22T06:32:41.446Z,101143.63
2023-02-22T06:35:08.762Z,101167.25
2023-02-22T06:37:36.194Z,101169.13
2023-02-22T06:40:05.816Z,101167.25
2023-02-22T06:42:32.776Z,101167.25
2023-02-22T06:44:59.424Z,101177.53
2023-02-22T06:47:26.119Z,101163.94
2023-02-22T06:49:57.303Z,101163.94
2023-02-22T06:52:24.289Z,101177.53
2023-02-22T06:54:51.648Z,101166.41
2023-02-22T06:57:18.563Z,101176.19
2023-02-22T06:59:45.099Z,101180.53
2023-02-22T07:02:12.702Z,101181.09
2023-02-22T07:04:42.268Z,101180.00
2023-02-22T07:07:09.810Z,101182.47
2023-02-22T07:09:36.417Z,101190.59
2023-02-22T07:12:03.052Z,101189.53
2023-02-22T07:14:29.614Z,101190.09
2023-02-22T07:16:56.106Z,101184.13
2023-02-22T07:19:22.589Z,101192.84
2023-02-22T07:21:49.201Z,101189.06
2023-02-22T07:24:16.065Z,101203.94
2023-02-22T07:26:42.911Z,101198.78
2023-02-22T07:29:11.288Z,101206.16
2023-02-22T07:31:39.206Z,101196.72
2023-02-22T07:34:05.761Z,101199.97
2023-02-22T07:36:32.399Z,101191.50
2023-02-22T07:38:58.985Z,101192.09
2023-02-22T07:41:25.555Z,101192.34
2023-02-22T07:43:52.261Z,101183.13
2023-02-22T07:46:18.818Z,101189.38
2023-02-22T07:48:45.333Z,101170.09
2023-02-22T07:51:16.357Z,101179.34
2023-02-22T07:53:43.144Z,101166.03
2023-02-22T07:56:10.346Z,101162.47
2023-02-22T07:58:36.944Z,101174.72
2023-02-22T08:01:03.685Z,101172.81
2023-02-22T08:03:36.418Z,101180.97
2023-02-22T08:06:05.037Z,101169.28
2023-02-22T08:08:31.748Z,101150.25
2023-02-22T08:10:58.491Z,101146.72
2023-02-22T08:13:25.285Z,101156.47
2023-02-22T08:15:53.799Z,101166.53
2023-02-22T08:18:21.407Z,101151.88
2023-02-22T08:20:49.909Z,101144.53
2023-02-22T08:23:17.983Z,101144.53
2023-02-22T08:25:45.021Z,101134.78
2023-02-22T08:28:13.878Z,101122.34
2023-02-22T08:30:42.828Z,101135.94
2023-02-22T08:33:11.653Z,101131.59
2023-02-22T08:35:38.227Z,101121.03
2023-02-22T08:38:07.261Z,101118.59
2023-02-22T08:40:36.558Z,101116.13
2023-02-22T08:43:04.639Z,101125.34
2023-02-22T08:45:31.253Z,101112.03
2023-02-22T08:47:59.424Z,101115.31
2023-02-22T08:50:31.994Z,101112.88
2023-02-22T08:53:01.004Z,101100.34
2023-02-22T08:55:32.430Z,101099.00
2023-02-22T08:58:01.414Z,101111.47
2023-02-22T09:00:29.589Z,101120.44
2023-02-22T09:02:56.430Z,101113.09
2023-02-22T09:05:23.214Z,101108.50
2023-02-22T09:07:49.690Z,101121.53
2023-02-22T09:10:18.899Z,101129.91
2023-02-22T09:12:45.415Z,101126.63
2023-02-22T09:15:12.786Z,101141.28
2023-02-22T09:17:39.480Z,101154.84
2023-02-22T09:20:08.041Z,101131.25
2023-02-22T09:22:34.636Z,101140.19
2023-02-22T09:25:11.333Z,101138.81
2023-02-22T09:27:43.611Z,101151.56
2023-02-22T09:30:26.990Z,101164.06
2023-02-22T09:32:56.517Z,101171.38
2023-02-22T09:35:30.027Z,101164.88
2023-02-22T09:37:58.739Z,101155.38
2023-02-22T09:40:30.246Z,101150.19
2023-02-22T09:43:16.355Z,101136.38
2023-02-22T09:45:45.174Z,101131.97
2023-02-22T09:48:21.693Z,101129.56
2023-02-22T09:50:52.177Z,101135.28
2023-02-22T09:53:29.927Z,101143.41
2023-02-22T09:56:06.902Z,101140.94
2023-02-22T09:58:41.721Z,101150.16
2023-02-22T10:01:20.088Z,101146.63
2023-02-22T10:04:05.541Z,101145.00
2023-02-22T10:06:33.853Z,101141.47
2023-02-22T10:09:07.709Z,101154.78
2023-02-22T10:11:43.414Z,101152.31
2023-02-22T10:14:28.646Z,101166.97
2023-02-22T10:17:10.874Z,101155.28
2023-02-22T10:19:57.626Z,101151.78
2023-02-22T10:22:39.418Z,101150.69
2023-02-22T10:25:17.909Z,101152.31
2023-02-22T10:28:03.652Z,101151.78
2023-02-22T10:30:37.281Z,101149.06
2023-02-22T10:33:17.394Z,101143.88
2023-02-22T10:35:46.961Z,101122.44
2023-02-22T10:38:19.200Z,101135.72
2023-02-22T10:41:10.898Z,101131.16
2023-02-22T10:43:38.624Z,101130.56
2023-02-22T10:46:12.549Z,101120.53
2023-02-22T10:48:42.187Z,101131.41
2023-02-22T10:51:09.860Z,101118.91
2023-02-22T10:53:41.160Z,101123.25
2023-02-22T10:56:21.594Z,101124.34
2023-02-22T10:59:04.223Z,101119.72
2023-02-22T11:01:37.575Z,101117.00
2023-02-22T11:04:09.981Z,101109.97
2023-02-22T11:06:38.416Z,101111.84
2023-02-22T11:09:22.375Z,101104.78
2023-02-22T11:11:50.592Z,101112.69
2023-02-22T11:14:29.802Z,101111.06
2023-02-22T11:16:59.206Z,101114.00
2023-02-22T11:19:28.978Z,101101.00
2023-02-22T11:22:09.577Z,101102.34
2023-02-22T11:24:49.318Z,101104.25
2023-02-22T11:27:33.763Z,101098.81
2023-02-22T11:30:22.142Z,101087.38
2023-02-22T11:32:54.600Z,101091.75
2023-02-22T11:35:33.042Z,101084.69
2023-02-22T11:38:21.101Z,101093.63
2023-02-22T11:41:06.257Z,101081.97
2023-02-22T11:43:32.751Z,101090.09
2023-02-22T11:46:02.492Z,101084.69
2023-02-22T11:48:32.389Z,101087.97
2023-02-22T11:51:03.858Z,101087.16
2023-02-22T11:53:40.799Z,101080.06
2023-02-22T11:56:36.971Z,101069.22
2023-02-22T11:59:32.374Z,101075.47
2023-02-22T12:02:18.497Z,101068.41
2023-02-22T12:05:08.300Z,101077.34
2023-02-22T12:07:53.369Z,101067.06
2023-02-22T12:10:56.500Z,101069.50
2023-02-22T12:13:40.235Z,101073.81
2023-02-22T12:16:13.946Z,101080.91
2023-02-22T12:18:59.741Z,101081.16
2023-02-22T12:21:29.834Z,101073.00
2023-02-22T12:24:08.131Z,101073.81
2023-02-22T12:26:39.889Z,101079.25
2023-02-22T12:29:14.579Z,101077.09
2023-02-22T12:31:51.996Z,101078.72
2023-02-22T12:34:21.919Z,101076.28
2023-02-22T12:36:53.714Z,101080.91
2023-02-22T12:39:53.807Z,101066.25
2023-02-22T12:42:56.624Z,101079.53
2023-02-22T12:45:48.391Z,101083.63
2023-02-22T12:48:21.583Z,101072.78
2023-02-22T12:50:56.247Z,101070.06
2023-02-22T12:53:31.337Z,101067.34
2023-02-22T12:56:25.618Z,101065.44
2023-02-22T12:59:08.130Z,101072.78
2023-02-22T13:01:50.309Z,101075.22
2023-02-22T13:04:20.833Z,101066.25
2023-02-22T13:07:21.219Z,101075.47
2023-02-22T13:09:57.794Z,101070.88
2023-02-22T13:12:52.587Z,101067.88
2023-02-22T13:15:23.069Z,101072.22
2023-02-22T13:18:02.147Z,101069.50
2023-02-22T13:20:33.317Z,101062.44
2023-02-22T13:23:39.066Z,101068.69
2023-02-22T13:26:22.236Z,101061.66
2023-02-22T13:29:15.644Z,101063.28
2023-02-22T13:31:59.790Z,101063.53
2023-02-22T13:34:50.920Z,101067.06
2023-02-22T13:37:58.857Z,101075.50
2023-02-22T13:40:50.389Z,101072.78
2023-02-22T13:43:38.329Z,101071.97
2023-02-22T13:46:20.551Z,101065.72
2023-02-22T13:49:14.954Z,101078.22
2023-02-22T13:51:47.496Z,101068.19
2023-02-22T13:54:29.761Z,101062.75
2023-02-22T13:56:57.626Z,101073.31
2023-02-22T13:59:29.945Z,101066.28
2023-02-22T14:01:58.310Z,101069.00
2023-02-22T14:04:27.864Z,101076.03
2023-02-22T14:06:56.748Z,101075.50
2023-02-22T14:09:53.719Z,101070.88
2023-02-22T14:12:46.435Z,101073.31
2023-02-22T14:15:28.584Z,101077.13
2023-02-22T14:18:01.067Z,101086.91
2023-02-22T14:20:38.226Z,101085.03
2023-02-22T14:23:23.336Z,101095.88
2023-02-22T14:25:51.070Z,101091.25
2023-02-22T14:28:50.207Z,101098.59
2023-02-22T14:31:34.872Z,101100.22
2023-02-22T14:34:14.857Z,101093.16
2023-02-22T14:36:44.271Z,101093.97
2023-02-22T14:39:19.625Z,101105.66
2023-02-22T14:42:01.522Z,101108.34
2023-02-22T14:44:36.033Z,101100.75
2023-02-22T14:47:05.851Z,101114.59
2023-02-22T14:49:38.768Z,101112.69
2023-02-22T14:52:15.922Z,101112.69
2023-02-22T14:55:17.784Z,101115.69
2023-02-22T14:57:48.366Z,101116.50
2023-02-22T15:00:20.175Z,101122.75
2023-02-22T15:02:50.053Z,101117.59
2023-02-22T15:05:22.245Z,101123.00
2023-02-22T15:07:57.166Z,101112.97
2023-02-22T15:10:39.550Z,101118.41
2023-02-22T15:13:19.491Z,101124.63
2023-02-22T15:15:49.646Z,101131.97
2023-02-22T15:18:22.111Z,101117.31
2023-02-22T15:20:56.067Z,101121.66
2023-02-22T15:25:50.719Z,101131.97
2023-02-22T15:28:18.610Z,101133.59
2023-02-22T15:30:45.417Z,101127.13
2023-02-22T15:33:17.521Z,101133.09
2023-02-22T15:35:44.943Z,101145.34
2023-02-22T15:38:11.387Z,101138.06
2023-02-22T15:40:42.982Z,101139.72
2023-02-22T15:43:25.201Z,101161.22
2023-02-22T15:45:52.266Z,101142.75
2023-02-22T15:48:19.471Z,101147.97
2023-02-22T15:51:07.135Z,101145.25
2023-02-22T15:53:45.262Z,101146.34
2023-02-22T15:56:18.389Z,101135.47
2023-02-22T15:58:48.430Z,101143.63
2023-02-22T16:01:19.268Z,101143.63
2023-02-22T16:03:51.168Z,101151.47
2023-02-22T16:06:37.946Z,101139.00
2023-02-22T16:09:16.199Z,101144.44
2023-02-22T16:11:45.002Z,101136.56
2023-02-22T16:14:42.747Z,101133.84
2023-02-22T16:17:25.477Z,101139.28
2023-02-22T16:19:53.150Z,101142.22
2023-02-22T16:22:49.453Z,101142.00
2023-02-22T16:25:19.282Z,101156.63
2023-02-22T16:27:48.602Z,101152.59
2023-02-22T16:30:24.304Z,101146.91
2023-02-22T16:32:53.726Z,101155.06
2023-02-22T16:35:20.331Z,101156.41
2023-02-22T16:37:52.352Z,101153.94
2023-02-22T16:40:24.987Z,101164.81
2023-02-22T16:42:51.835Z,101160.44
2023-02-22T16:45:20.199Z,101153.38
2023-02-22T16:47:47.607Z,101167.78
2023-02-22T16:50:14.857Z,101163.72
2023-02-22T16:52:41.742Z,101163.97
2023-02-22T16:55:14.199Z,101166.69
2023-02-22T16:57:42.305Z,101159.63
2023-02-22T17:00:15.324Z,101172.69
2023-02-22T17:02:42.347Z,101175.41
2023-02-22T17:05:12.858Z,101169.16
2023-02-22T17:07:40.521Z,101172.69
2023-02-22T17:10:07.656Z,101170.53
2023-02-22T17:12:34.309Z,101168.34
2023-02-22T17:15:03.447Z,101171.88
2023-02-22T17:17:29.975Z,101165.13
2023-02-22T17:19:56.803Z,101174.09
2023-02-22T17:22:23.332Z,101178.69
2023-02-22T17:24:50.020Z,101170.56
2023-02-22T17:27:16.568Z,101183.03
2023-02-22T17:29:45.027Z,101183.31
2023-02-22T17:32:12.817Z,101185.75
2023-02-22T17:34:39.381Z,101179.50
2023-02-22T17:37:06.341Z,101190.38
2023-02-22T17:39:32.896Z,101192.00
2023-02-22T17:41:59.757Z,101197.72
2023-02-22T17:44:26.696Z,101185.50
2023-02-22T17:46:53.908Z,101201.50
2023-02-22T17:49:20.562Z,101198.25
2023-02-22T17:51:50.055Z,101197.19
2023-02-22T17:54:17.649Z,101202.63
2023-02-22T17:56:44.639Z,101208.59
2023-02-22T17:59:11.227Z,101202.34
2023-02-22T18:01:38.113Z,101205.06
2023-02-22T18:04:05.341Z,101208.88
2023-02-22T18:06:32.789Z,101209.97
2023-02-22T18:09:00.409Z,101214.03
2023-02-22T18:11:28.847Z,101216.50
2023-02-22T18:13:57.238Z,101220.03
2023-02-22T18:16:25.787Z,101219.72
2023-02-22T18:18:53.254Z,101212.97
2023-02-22T18:21:19.729Z,101206.97
2023-02-22T18:23:46.227Z,101215.41
2023-02-22T18:26:21.123Z,101220.03
2023-02-22T18:28:48.923Z,101220.25
2023-02-22T18:31:18.579Z,101220.03
2023-02-22T18:33:47.773Z,101228.16
2023-02-22T18:36:15.536Z,101224.88
2023-02-22T18:38:43.661Z,101235.75
2023-02-22T18:41:15.825Z,101238.47
2023-02-22T18:43:43.424Z,101228.97
2023-02-22T18:46:19.324Z,101224.38
2023-02-22T18:48:47.872Z,101227.88
2023-02-22T18:51:17.278Z,101220.03
2023-02-22T18:53:47.059Z,101225.19
2023-02-22T18:56:16.354Z,101231.69
2023-02-22T18:58:43.447Z,101231.69
2023-02-22T19:01:15.856Z,101228.16
2023-02-22T19:03:43.043Z,101221.34
2023-02-22T19:06:09.979Z,101229.25
2023-02-22T19:08:39.658Z,101229.56
2023-02-22T19:11:19.281Z,101221.41
2023-02-22T19:13:51.671Z,101215.13
2023-02-22T19:16:20.888Z,101224.13
2023-02-22T19:18:49.227Z,101219.22
2023-02-22T19:21:16.608Z,101231.19
2023-02-22T19:23:47.628Z,101224.38
2023-02-22T19:26:20.224Z,101233.09
2023-02-22T19:28:48.149Z,101226.84
2023-02-22T19:31:16.368Z,101223.03
2023-02-22T19:33:43.889Z,101228.19
2023-02-22T19:36:11.999Z,101222.16
2023-02-22T19:38:39.579Z,101227.34
2023-02-22T19:41:12.417Z,101230.31
2023-02-22T19:43:39.262Z,101233.31
2023-02-22T19:46:07.282Z,101244.72
2023-02-22T19:48:34.551Z,101238.22
2023-02-22T19:51:07.175Z,101240.66
2023-02-22T19:53:35.025Z,101245.84
2023-02-22T19:56:09.685Z,101242.28
2023-02-22T19:58:37.966Z,101249.91
2023-02-22T20:01:22.880Z,101250.19
2023-02-22T20:04:01.729Z,101255.88
2023-02-22T20:06:34.659Z,101258.59
2023-02-22T20:09:02.657Z,101262.16
2023-02-22T20:11:29.514Z,101251.28
2023-02-22T20:13:57.128Z,101259.97
2023-02-22T20:16:24.421Z,101255.63
2023-02-22T20:18:51.255Z,101254.53
2023-02-22T20:21:33.201Z,101256.97
2023-02-22T20:24:01.302Z,101259.97
2023-02-22T20:26:29.920Z,101264.84
2023-02-22T20:28:57.452Z,101260.75
2023-02-22T20:31:24.612Z,101267.81
2023-02-22T20:33:56.402Z,101257.78
2023-02-22T20:36:23.665Z,101262.66
2023-02-22T20:38:59.129Z,101255.31
2023-02-22T20:41:34.828Z,101257.22
2023-02-22T20:44:03.336Z,101260.19
2023-02-22T20:46:36.326Z,101259.94
2023-02-22T20:49:07.439Z,101267.78
2023-02-22T20:51:35.398Z,101260.47
2023-02-22T20:54:02.034Z,101273.78
2023-02-22T20:56:30.895Z,101271.31
2023-02-22T20:59:02.195Z,101265.09
2023-02-22T21:01:29.146Z,101271.84
2023-02-22T21:04:00.533Z,101272.41
2023-02-22T21:06:27.973Z,101260.97
2023-02-22T21:08:57.145Z,101263.41
2023-02-22T21:11:26.326Z,101274.84
2023-02-22T21:13:53.734Z,101267.22
2023-02-22T21:16:23.626Z,101266.72
2023-02-22T21:18:51.699Z,101265.69
2023-02-22T21:21:18.973Z,101265.69
2023-02-22T21:23:52.611Z,101272.22
2023-02-22T21:26:23.555Z,101268.13
2023-02-22T21:28:52.199Z,101273.53
2023-02-22T21:31:21.416Z,101267.56
2023-02-22T21:33:50.633Z,101270.00
2023-02-22T21:36:17.750Z,101274.06
2023-02-22T21:38:46.724Z,101270.53
2023-02-22T21:41:15.328Z,101269.44
2023-02-22T21:43:42.707Z,101272.44
2023-02-22T21:46:10.926Z,101277.88
2023-02-22T21:48:45.254Z,101276.25
2023-02-22T21:51:14.165Z,101277.28
2023-02-22T21:53:48.727Z,101275.66
2023-02-22T21:56:19.054Z,101274.84
2023-02-22T21:58:46.807Z,101281.09
2023-02-22T22:01:17.364Z,101280.56
2023-02-22T22:03:45.904Z,101273.47
2023-02-22T22:06:14.600Z,101278.09
2023-02-22T22:08:42.227Z,101278.09
2023-02-22T22:11:10.462Z,101277.28
2023-02-22T22:13:39.698Z,101283.78
2023-02-22T22:16:16.517Z,101272.94
2023-02-22T22:18:44.773Z,101272.34
2023-02-22T22:21:22.880Z,101282.41
2023-02-22T22:23:54.551Z,101287.84
2023-02-22T22:26:24.579Z,101287.84
2023-02-22T22:28:54.370Z,101277.25
2023-02-22T22:31:23.715Z,101279.97
2023-02-22T22:33:50.658Z,101278.31
2023-02-22T22:36:19.696Z,101284.00
2023-02-22T22:38:49.325Z,101284.00
2023-02-22T22:41:19.032Z,101285.91
2023-02-22T22:43:46.594Z,101276.13
2023-02-22T22:46:16.257Z,101281.56
2023-02-22T22:48:46.743Z,101283.19
2023-02-22T22:51:15.118Z,101279.09
2023-02-22T22:53:43.738Z,101274.47
2023-02-22T22:56:18.907Z,101272.03
2023-02-22T22:58:50.765Z,101277.47
2023-02-22T23:01:20.393Z,101281.00
2023-02-22T23:03:54.914Z,101276.09
2023-02-22T23:06:27.203Z,101276.91
2023-02-22T23:09:12.003Z,101277.75
2023-02-22T23:11:44.557Z,101279.59
2023-02-22T23:14:13.471Z,101287.75
2023-02-22T23:16:40.300Z,101285.31
2023-02-22T23:19:07.981Z,101282.88
2023-02-22T23:21:35.978Z,101283.69
2023-02-22T23:24:06.727Z,101290.16
2023-02-22T23:26:34.081Z,101292.88
2023-02-22T23:29:01.817Z,101288.81
2023-02-22T23:31:29.119Z,101298.59
2023-02-22T23:33:58.549Z,101285.81
2023-02-22T23:36:26.435Z,101290.72
2023-02-22T23:38:54.234Z,101303.19
2023-02-22T23:41:21.155Z,101299.66
2023-02-22T23:43:47.785Z,101296.38
2023-02-22T23:46:18.552Z,101301.00
2023-02-22T23:48:53.047Z,101297.47
2023-02-22T23:51:25.611Z,101304.00
2023-02-22T23:53:58.103Z,101295.03
2023-02-22T23:56:27.241Z,101295.84
2023-02-22T23:58:57.343Z,101305.31
